sensor_id;sensor_type;location;lat;lon;timestamp;P1;durP1;ratioP1;P2;durP2;ratioP2
38083;SDS011;23894;51.466;7.444;2023-08-31T00:00:54;7.75;;;3.42;;
38083;SDS011;23894;51.466;7.444;2023-08-31T00:02:55;8.30;;;3.10;;
38083;SDS011;23894;51.466;7.444;2023-08-31T00:04:58;8.40;;;3.10;;
38083;SDS011;23894;51.466;7.444;2023-08-31T00:07:00;7.47;;;3.22;;
38083;SDS011;23894;51.466;7.444;2023-08-31T00:09:01;6.85;;;3.22;;
38083;SDS011;23894;51.466;7.444;2023-08-31T00:11:04;6.57;;;3.00;;
38083;SDS011;23894;51.466;7.444;2023-08-31T00:13:06;8.27;;;3.00;;
38083;SDS011;23894;51.466;7.444;2023-08-31T00:15:07;6.57;;;2.97;;
38083;SDS011;23894;51.466;7.444;2023-08-31T00:17:09;8.80;;;3.10;;
38083;SDS011;23894;51.466;7.444;2023-08-31T00:19:10;7.55;;;2.88;;
38083;SDS011;23894;51.466;7.444;2023-08-31T00:21:11;7.00;;;2.65;;
38083;SDS011;23894;51.466;7.444;2023-08-31T00:23:12;8.23;;;2.92;;
38083;SDS011;23894;51.466;7.444;2023-08-31T00:25:14;7.13;;;3.00;;
38083;SDS011;23894;51.466;7.444;2023-08-31T00:27:17;6.72;;;2.78;;
38083;SDS011;23894;51.466;7.444;2023-08-31T00:29:23;6.70;;;2.90;;
38083;SDS011;23894;51.466;7.444;2023-08-31T00:31:25;9.75;;;2.83;;
38083;SDS011;23894;51.466;7.444;2023-08-31T00:33:27;6.00;;;2.55;;
38083;SDS011;23894;51.466;7.444;2023-08-31T00:35:28;8.45;;;2.83;;
38083;SDS011;23894;51.466;7.444;2023-08-31T00:37:29;8.20;;;3.00;;
38083;SDS011;23894;51.466;7.444;2023-08-31T00:39:31;7.07;;;2.67;;
38083;SDS011;23894;51.466;7.444;2023-08-31T00:41:34;6.80;;;2.83;;
38083;SDS011;23894;51.466;7.444;2023-08-31T00:43:35;8.40;;;2.75;;
38083;SDS011;23894;51.466;7.444;2023-08-31T00:45:37;8.80;;;3.20;;
38083;SDS011;23894;51.466;7.444;2023-08-31T00:47:40;7.75;;;2.60;;
38083;SDS011;23894;51.466;7.444;2023-08-31T00:49:41;6.88;;;2.70;;
38083;SDS011;23894;51.466;7.444;2023-08-31T00:51:43;6.72;;;2.85;;
38083;SDS011;23894;51.466;7.444;2023-08-31T00:53:51;8.93;;;2.53;;
38083;SDS011;23894;51.466;7.444;2023-08-31T00:55:55;7.40;;;2.67;;
38083;SDS011;23894;51.466;7.444;2023-08-31T00:57:57;6.85;;;2.40;;
38083;SDS011;23894;51.466;7.444;2023-08-31T00:59:58;5.95;;;2.47;;
38083;SDS011;23894;51.466;7.444;2023-08-31T01:02:02;7.93;;;2.93;;
38083;SDS011;23894;51.466;7.444;2023-08-31T01:11:12;10.20;;;3.22;;
38083;SDS011;23894;51.466;7.444;2023-08-31T01:13:19;6.50;;;2.87;;
38083;SDS011;23894;51.466;7.444;2023-08-31T01:15:23;6.47;;;2.78;;
38083;SDS011;23894;51.466;7.444;2023-08-31T01:17:24;6.32;;;2.83;;
38083;SDS011;23894;51.466;7.444;2023-08-31T01:19:34;7.13;;;3.20;;
38083;SDS011;23894;51.466;7.444;2023-08-31T01:21:40;6.90;;;2.95;;
38083;SDS011;23894;51.466;7.444;2023-08-31T01:23:52;6.47;;;3.10;;
38083;SDS011;23894;51.466;7.444;2023-08-31T01:25:55;8.57;;;3.17;;
38083;SDS011;23894;51.466;7.444;2023-08-31T01:27:58;8.13;;;2.92;;
38083;SDS011;23894;51.466;7.444;2023-08-31T01:29:59;7.28;;;3.20;;
38083;SDS011;23894;51.466;7.444;2023-08-31T01:32:00;6.57;;;3.08;;
38083;SDS011;23894;51.466;7.444;2023-08-31T01:34:01;6.10;;;3.20;;
38083;SDS011;23894;51.466;7.444;2023-08-31T01:36:03;6.85;;;2.97;;
38083;SDS011;23894;51.466;7.444;2023-08-31T01:38:05;9.55;;;3.47;;
38083;SDS011;23894;51.466;7.444;2023-08-31T01:40:10;8.15;;;3.25;;
38083;SDS011;23894;51.466;7.444;2023-08-31T01:42:15;7.72;;;3.40;;
38083;SDS011;23894;51.466;7.444;2023-08-31T01:44:18;7.57;;;3.28;;
38083;SDS011;23894;51.466;7.444;2023-08-31T01:46:19;7.18;;;3.30;;
38083;SDS011;23894;51.466;7.444;2023-08-31T01:48:20;8.77;;;3.70;;
38083;SDS011;23894;51.466;7.444;2023-08-31T01:50:21;7.03;;;3.22;;
38083;SDS011;23894;51.466;7.444;2023-08-31T01:52:22;6.53;;;2.78;;
38083;SDS011;23894;51.466;7.444;2023-08-31T01:54:23;9.13;;;3.10;;
38083;SDS011;23894;51.466;7.444;2023-08-31T01:56:24;6.53;;;3.20;;
38083;SDS011;23894;51.466;7.444;2023-08-31T01:58:25;7.55;;;3.28;;
38083;SDS011;23894;51.466;7.444;2023-08-31T02:00:27;8.18;;;3.67;;
38083;SDS011;23894;51.466;7.444;2023-08-31T02:02:29;8.45;;;3.80;;
38083;SDS011;23894;51.466;7.444;2023-08-31T02:04:33;7.03;;;3.22;;
38083;SDS011;23894;51.466;7.444;2023-08-31T02:06:35;8.23;;;3.60;;
38083;SDS011;23894;51.466;7.444;2023-08-31T02:08:36;8.87;;;3.53;;
38083;SDS011;23894;51.466;7.444;2023-08-31T02:10:39;7.07;;;3.50;;
38083;SDS011;23894;51.466;7.444;2023-08-31T02:12:41;6.30;;;3.30;;
38083;SDS011;23894;51.466;7.444;2023-08-31T02:14:42;7.80;;;3.38;;
38083;SDS011;23894;51.466;7.444;2023-08-31T02:16:43;8.85;;;3.42;;
38083;SDS011;23894;51.466;7.444;2023-08-31T02:18:44;5.95;;;3.10;;
38083;SDS011;23894;51.466;7.444;2023-08-31T02:20:45;5.78;;;3.30;;
38083;SDS011;23894;51.466;7.444;2023-08-31T02:22:46;7.63;;;3.35;;
38083;SDS011;23894;51.466;7.444;2023-08-31T02:24:48;8.50;;;3.90;;
38083;SDS011;23894;51.466;7.444;2023-08-31T02:26:54;7.35;;;3.58;;
38083;SDS011;23894;51.466;7.444;2023-08-31T02:28:56;10.70;;;4.00;;
38083;SDS011;23894;51.466;7.444;2023-08-31T02:31:00;8.48;;;3.70;;
38083;SDS011;23894;51.466;7.444;2023-08-31T02:33:03;7.10;;;3.40;;
38083;SDS011;23894;51.466;7.444;2023-08-31T02:35:05;6.15;;;3.22;;
38083;SDS011;23894;51.466;7.444;2023-08-31T02:37:07;7.40;;;3.58;;
38083;SDS011;23894;51.466;7.444;2023-08-31T02:39:08;6.88;;;3.25;;
38083;SDS011;23894;51.466;7.444;2023-08-31T02:41:09;6.97;;;3.38;;
38083;SDS011;23894;51.466;7.444;2023-08-31T02:43:10;6.18;;;3.33;;
38083;SDS011;23894;51.466;7.444;2023-08-31T02:45:11;9.45;;;3.40;;
38083;SDS011;23894;51.466;7.444;2023-08-31T02:47:12;5.97;;;3.20;;
38083;SDS011;23894;51.466;7.444;2023-08-31T02:49:13;8.20;;;3.72;;
38083;SDS011;23894;51.466;7.444;2023-08-31T02:51:14;7.13;;;3.47;;
38083;SDS011;23894;51.466;7.444;2023-08-31T02:53:15;6.97;;;3.43;;
38083;SDS011;23894;51.466;7.444;2023-08-31T02:55:16;7.72;;;3.53;;
38083;SDS011;23894;51.466;7.444;2023-08-31T02:57:18;7.68;;;3.63;;
38083;SDS011;23894;51.466;7.444;2023-08-31T02:59:22;7.70;;;3.78;;
38083;SDS011;23894;51.466;7.444;2023-08-31T03:01:23;7.72;;;3.78;;
38083;SDS011;23894;51.466;7.444;2023-08-31T03:03:25;9.30;;;4.10;;
38083;SDS011;23894;51.466;7.444;2023-08-31T03:05:27;8.02;;;3.90;;
38083;SDS011;23894;51.466;7.444;2023-08-31T03:07:28;8.25;;;4.25;;
38083;SDS011;23894;51.466;7.444;2023-08-31T03:09:29;8.70;;;4.32;;
38083;SDS011;23894;51.466;7.444;2023-08-31T03:11:30;9.13;;;4.00;;
38083;SDS011;23894;51.466;7.444;2023-08-31T03:13:31;9.95;;;4.40;;
38083;SDS011;23894;51.466;7.444;2023-08-31T03:15:33;8.18;;;4.15;;
38083;SDS011;23894;51.466;7.444;2023-08-31T03:17:35;8.90;;;4.60;;
38083;SDS011;23894;51.466;7.444;2023-08-31T03:19:37;8.60;;;4.20;;
38083;SDS011;23894;51.466;7.444;2023-08-31T03:21:38;8.15;;;4.70;;
38083;SDS011;23894;51.466;7.444;2023-08-31T03:23:40;7.28;;;4.35;;
38083;SDS011;23894;51.466;7.444;2023-08-31T03:25:42;7.80;;;5.00;;
38083;SDS011;23894;51.466;7.444;2023-08-31T03:27:43;7.27;;;4.40;;
38083;SDS011;23894;51.466;7.444;2023-08-31T03:29:47;6.78;;;4.20;;
38083;SDS011;23894;51.466;7.444;2023-08-31T03:31:49;8.83;;;4.90;;
38083;SDS011;23894;51.466;7.444;2023-08-31T03:33:50;7.47;;;4.32;;
38083;SDS011;23894;51.466;7.444;2023-08-31T03:35:52;9.48;;;5.15;;
38083;SDS011;23894;51.466;7.444;2023-08-31T03:37:55;8.97;;;5.10;;
38083;SDS011;23894;51.466;7.444;2023-08-31T03:39:56;7.75;;;4.97;;
38083;SDS011;23894;51.466;7.444;2023-08-31T03:41:57;9.63;;;5.25;;
38083;SDS011;23894;51.466;7.444;2023-08-31T03:43:58;8.98;;;4.70;;
38083;SDS011;23894;51.466;7.444;2023-08-31T03:45:59;10.77;;;5.70;;
38083;SDS011;23894;51.466;7.444;2023-08-31T03:48:01;9.23;;;5.10;;
38083;SDS011;23894;51.466;7.444;2023-08-31T03:50:05;8.55;;;5.43;;
38083;SDS011;23894;51.466;7.444;2023-08-31T03:52:07;10.33;;;5.60;;
38083;SDS011;23894;51.466;7.444;2023-08-31T03:54:08;9.00;;;5.50;;
38083;SDS011;23894;51.466;7.444;2023-08-31T03:56:10;8.60;;;5.57;;
38083;SDS011;23894;51.466;7.444;2023-08-31T03:58:13;9.25;;;6.03;;
38083;SDS011;23894;51.466;7.444;2023-08-31T04:00:14;9.40;;;5.97;;
38083;SDS011;23894;51.466;7.444;2023-08-31T04:02:15;9.05;;;6.00;;
38083;SDS011;23894;51.466;7.444;2023-08-31T04:04:16;8.93;;;6.10;;
38083;SDS011;23894;51.466;7.444;2023-08-31T04:06:17;10.10;;;5.93;;
38083;SDS011;23894;51.466;7.444;2023-08-31T04:08:19;9.30;;;5.30;;
38083;SDS011;23894;51.466;7.444;2023-08-31T04:10:21;9.02;;;5.95;;
38083;SDS011;23894;51.466;7.444;2023-08-31T04:12:23;12.00;;;6.33;;
38083;SDS011;23894;51.466;7.444;2023-08-31T04:14:27;9.68;;;6.15;;
38083;SDS011;23894;51.466;7.444;2023-08-31T04:16:28;9.38;;;5.72;;
38083;SDS011;23894;51.466;7.444;2023-08-31T04:18:29;9.02;;;5.82;;
38083;SDS011;23894;51.466;7.444;2023-08-31T04:20:33;7.97;;;5.40;;
38083;SDS011;23894;51.466;7.444;2023-08-31T04:22:34;12.53;;;6.63;;
38083;SDS011;23894;51.466;7.444;2023-08-31T04:24:36;10.27;;;6.00;;
38083;SDS011;23894;51.466;7.444;2023-08-31T04:26:37;9.10;;;6.10;;
38083;SDS011;23894;51.466;7.444;2023-08-31T04:28:41;10.90;;;6.60;;
38083;SDS011;23894;51.466;7.444;2023-08-31T04:30:42;8.73;;;5.85;;
38083;SDS011;23894;51.466;7.444;2023-08-31T04:32:44;9.98;;;6.32;;
38083;SDS011;23894;51.466;7.444;2023-08-31T04:34:46;10.18;;;6.40;;
38083;SDS011;23894;51.466;7.444;2023-08-31T04:36:48;11.00;;;6.00;;
38083;SDS011;23894;51.466;7.444;2023-08-31T04:38:51;10.20;;;6.70;;
38083;SDS011;23894;51.466;7.444;2023-08-31T04:40:52;11.00;;;7.30;;
38083;SDS011;23894;51.466;7.444;2023-08-31T04:42:53;10.30;;;6.70;;
38083;SDS011;23894;51.466;7.444;2023-08-31T04:44:54;9.40;;;6.53;;
38083;SDS011;23894;51.466;7.444;2023-08-31T04:46:55;10.38;;;7.35;;
38083;SDS011;23894;51.466;7.444;2023-08-31T04:48:56;9.57;;;6.72;;
38083;SDS011;23894;51.466;7.444;2023-08-31T04:50:58;10.05;;;7.07;;
38083;SDS011;23894;51.466;7.444;2023-08-31T04:52:59;10.65;;;6.93;;
38083;SDS011;23894;51.466;7.444;2023-08-31T04:55:05;8.30;;;6.22;;
38083;SDS011;23894;51.466;7.444;2023-08-31T04:57:11;9.88;;;6.43;;
38083;SDS011;23894;51.466;7.444;2023-08-31T04:59:12;9.40;;;6.45;;
38083;SDS011;23894;51.466;7.444;2023-08-31T05:01:13;11.27;;;6.60;;
38083;SDS011;23894;51.466;7.444;2023-08-31T05:03:14;9.50;;;6.90;;
38083;SDS011;23894;51.466;7.444;2023-08-31T05:05:15;8.57;;;6.43;;
38083;SDS011;23894;51.466;7.444;2023-08-31T05:07:20;10.63;;;6.88;;
38083;SDS011;23894;51.466;7.444;2023-08-31T05:09:21;10.60;;;6.80;;
38083;SDS011;23894;51.466;7.444;2023-08-31T05:11:22;8.15;;;6.15;;
38083;SDS011;23894;51.466;7.444;2023-08-31T05:13:23;12.60;;;7.22;;
38083;SDS011;23894;51.466;7.444;2023-08-31T05:15:24;10.98;;;7.43;;
38083;SDS011;23894;51.466;7.444;2023-08-31T05:17:27;11.43;;;7.73;;
38083;SDS011;23894;51.466;7.444;2023-08-31T05:19:28;10.57;;;7.63;;
38083;SDS011;23894;51.466;7.444;2023-08-31T05:21:29;9.20;;;6.80;;
38083;SDS011;23894;51.466;7.444;2023-08-31T05:23:30;11.23;;;7.40;;
38083;SDS011;23894;51.466;7.444;2023-08-31T05:25:31;10.05;;;6.80;;
38083;SDS011;23894;51.466;7.444;2023-08-31T05:27:32;11.57;;;7.30;;
38083;SDS011;23894;51.466;7.444;2023-08-31T05:29:33;11.15;;;7.53;;
38083;SDS011;23894;51.466;7.444;2023-08-31T05:31:35;10.70;;;7.30;;
38083;SDS011;23894;51.466;7.444;2023-08-31T05:33:38;9.98;;;7.75;;
38083;SDS011;23894;51.466;7.444;2023-08-31T05:35:40;10.15;;;7.07;;
38083;SDS011;23894;51.466;7.444;2023-08-31T05:37:41;11.45;;;8.50;;
38083;SDS011;23894;51.466;7.444;2023-08-31T05:39:42;11.77;;;7.88;;
38083;SDS011;23894;51.466;7.444;2023-08-31T05:41:47;11.88;;;8.00;;
38083;SDS011;23894;51.466;7.444;2023-08-31T05:43:48;10.68;;;7.68;;
38083;SDS011;23894;51.466;7.444;2023-08-31T05:45:50;13.60;;;8.30;;
38083;SDS011;23894;51.466;7.444;2023-08-31T05:47:52;12.90;;;8.65;;
38083;SDS011;23894;51.466;7.444;2023-08-31T05:49:54;11.63;;;7.97;;
38083;SDS011;23894;51.466;7.444;2023-08-31T05:51:55;11.20;;;8.48;;
38083;SDS011;23894;51.466;7.444;2023-08-31T05:53:57;11.45;;;8.70;;
38083;SDS011;23894;51.466;7.444;2023-08-31T05:56:00;13.07;;;9.03;;
38083;SDS011;23894;51.466;7.444;2023-08-31T05:58:04;14.98;;;8.90;;
38083;SDS011;23894;51.466;7.444;2023-08-31T06:00:06;11.23;;;9.20;;
38083;SDS011;23894;51.466;7.444;2023-08-31T06:02:08;13.82;;;9.77;;
38083;SDS011;23894;51.466;7.444;2023-08-31T06:04:09;14.43;;;9.57;;
38083;SDS011;23894;51.466;7.444;2023-08-31T06:06:11;12.70;;;9.33;;
38083;SDS011;23894;51.466;7.444;2023-08-31T06:08:12;12.73;;;8.70;;
38083;SDS011;23894;51.466;7.444;2023-08-31T06:10:13;12.80;;;8.93;;
38083;SDS011;23894;51.466;7.444;2023-08-31T06:12:15;14.37;;;8.80;;
38083;SDS011;23894;51.466;7.444;2023-08-31T06:14:17;12.80;;;9.07;;
38083;SDS011;23894;51.466;7.444;2023-08-31T06:16:19;11.68;;;8.20;;
38083;SDS011;23894;51.466;7.444;2023-08-31T06:18:20;11.70;;;8.98;;
38083;SDS011;23894;51.466;7.444;2023-08-31T06:20:22;12.97;;;9.47;;
38083;SDS011;23894;51.466;7.444;2023-08-31T06:22:24;11.55;;;8.88;;
38083;SDS011;23894;51.466;7.444;2023-08-31T06:24:26;13.48;;;8.73;;
38083;SDS011;23894;51.466;7.444;2023-08-31T06:26:28;11.85;;;9.02;;
38083;SDS011;23894;51.466;7.444;2023-08-31T06:28:31;11.63;;;8.77;;
38083;SDS011;23894;51.466;7.444;2023-08-31T06:30:35;11.77;;;8.20;;
38083;SDS011;23894;51.466;7.444;2023-08-31T06:32:38;11.27;;;8.38;;
38083;SDS011;23894;51.466;7.444;2023-08-31T06:34:40;12.07;;;8.18;;
38083;SDS011;23894;51.466;7.444;2023-08-31T06:36:41;10.15;;;7.97;;
38083;SDS011;23894;51.466;7.444;2023-08-31T06:38:42;11.30;;;8.10;;
38083;SDS011;23894;51.466;7.444;2023-08-31T06:40:46;10.75;;;7.57;;
38083;SDS011;23894;51.466;7.444;2023-08-31T06:42:47;12.23;;;7.70;;
38083;SDS011;23894;51.466;7.444;2023-08-31T06:44:48;10.73;;;7.45;;
38083;SDS011;23894;51.466;7.444;2023-08-31T06:46:49;11.43;;;6.90;;
38083;SDS011;23894;51.466;7.444;2023-08-31T06:48:50;12.48;;;7.28;;
38083;SDS011;23894;51.466;7.444;2023-08-31T06:50:52;10.95;;;6.70;;
38083;SDS011;23894;51.466;7.444;2023-08-31T06:52:53;11.63;;;6.73;;
38083;SDS011;23894;51.466;7.444;2023-08-31T06:54:54;10.07;;;6.68;;
38083;SDS011;23894;51.466;7.444;2023-08-31T06:56:56;10.35;;;6.38;;
38083;SDS011;23894;51.466;7.444;2023-08-31T06:58:57;7.67;;;5.60;;
38083;SDS011;23894;51.466;7.444;2023-08-31T07:01:05;9.27;;;5.68;;
38083;SDS011;23894;51.466;7.444;2023-08-31T07:03:06;9.77;;;5.47;;
38083;SDS011;23894;51.466;7.444;2023-08-31T07:05:07;10.35;;;5.55;;
38083;SDS011;23894;51.466;7.444;2023-08-31T07:07:09;10.32;;;5.40;;
38083;SDS011;23894;51.466;7.444;2023-08-31T07:09:10;8.05;;;4.93;;
38083;SDS011;23894;51.466;7.444;2023-08-31T07:11:12;8.98;;;5.50;;
38083;SDS011;23894;51.466;7.444;2023-08-31T07:13:13;8.00;;;4.72;;
38083;SDS011;23894;51.466;7.444;2023-08-31T07:15:16;7.47;;;5.00;;
38083;SDS011;23894;51.466;7.444;2023-08-31T07:17:19;9.68;;;5.18;;
38083;SDS011;23894;51.466;7.444;2023-08-31T07:19:22;8.02;;;4.95;;
38083;SDS011;23894;51.466;7.444;2023-08-31T07:21:24;7.90;;;4.53;;
38083;SDS011;23894;51.466;7.444;2023-08-31T07:23:27;8.90;;;4.50;;
38083;SDS011;23894;51.466;7.444;2023-08-31T07:25:28;8.23;;;4.40;;
38083;SDS011;23894;51.466;7.444;2023-08-31T07:27:29;7.13;;;4.37;;
38083;SDS011;23894;51.466;7.444;2023-08-31T07:29:30;7.15;;;4.20;;
38083;SDS011;23894;51.466;7.444;2023-08-31T07:31:31;8.77;;;4.00;;
38083;SDS011;23894;51.466;7.444;2023-08-31T07:33:33;8.27;;;4.25;;
38083;SDS011;23894;51.466;7.444;2023-08-31T07:35:38;6.90;;;3.80;;
38083;SDS011;23894;51.466;7.444;2023-08-31T07:37:39;6.97;;;3.40;;
38083;SDS011;23894;51.466;7.444;2023-08-31T07:39:42;5.90;;;3.42;;
38083;SDS011;23894;51.466;7.444;2023-08-31T07:41:43;6.13;;;3.42;;
38083;SDS011;23894;51.466;7.444;2023-08-31T07:43:44;7.38;;;3.70;;
38083;SDS011;23894;51.466;7.444;2023-08-31T07:45:45;8.70;;;4.18;;
38083;SDS011;23894;51.466;7.444;2023-08-31T07:47:46;8.45;;;3.20;;
38083;SDS011;23894;51.466;7.444;2023-08-31T07:49:48;6.65;;;2.85;;
38083;SDS011;23894;51.466;7.444;2023-08-31T07:51:51;6.10;;;3.17;;
38083;SDS011;23894;51.466;7.444;2023-08-31T07:53:51;7.00;;;2.80;;
38083;SDS011;23894;51.466;7.444;2023-08-31T07:55:54;6.97;;;3.10;;
38083;SDS011;23894;51.466;7.444;2023-08-31T07:57:58;7.15;;;3.08;;
38083;SDS011;23894;51.466;7.444;2023-08-31T07:59:59;6.50;;;2.58;;
38083;SDS011;23894;51.466;7.444;2023-08-31T08:02:01;8.70;;;2.80;;
38083;SDS011;23894;51.466;7.444;2023-08-31T08:04:04;5.82;;;2.45;;
38083;SDS011;23894;51.466;7.444;2023-08-31T08:06:05;7.22;;;2.58;;
38083;SDS011;23894;51.466;7.444;2023-08-31T08:08:07;5.78;;;2.53;;
38083;SDS011;23894;51.466;7.444;2023-08-31T08:10:09;5.90;;;2.72;;
38083;SDS011;23894;51.466;7.444;2023-08-31T08:12:10;6.30;;;2.40;;
38083;SDS011;23894;51.466;7.444;2023-08-31T08:14:11;7.28;;;2.65;;
38083;SDS011;23894;51.466;7.444;2023-08-31T08:16:12;6.38;;;2.65;;
38083;SDS011;23894;51.466;7.444;2023-08-31T08:18:14;7.45;;;2.40;;
38083;SDS011;23894;51.466;7.444;2023-08-31T08:20:16;5.28;;;2.30;;
38083;SDS011;23894;51.466;7.444;2023-08-31T08:22:20;5.87;;;2.40;;
38083;SDS011;23894;51.466;7.444;2023-08-31T08:24:20;7.85;;;2.53;;
38083;SDS011;23894;51.466;7.444;2023-08-31T08:26:26;5.75;;;2.83;;
38083;SDS011;23894;51.466;7.444;2023-08-31T08:28:29;6.45;;;2.33;;
38083;SDS011;23894;51.466;7.444;2023-08-31T08:30:30;6.57;;;2.20;;
38083;SDS011;23894;51.466;7.444;2023-08-31T08:32:32;6.90;;;2.30;;
38083;SDS011;23894;51.466;7.444;2023-08-31T08:34:35;5.22;;;2.10;;
38083;SDS011;23894;51.466;7.444;2023-08-31T08:36:42;5.63;;;2.50;;
38083;SDS011;23894;51.466;7.444;2023-08-31T08:38:44;6.25;;;2.40;;
38083;SDS011;23894;51.466;7.444;2023-08-31T08:40:45;6.72;;;2.22;;
38083;SDS011;23894;51.466;7.444;2023-08-31T08:42:48;4.68;;;2.00;;
38083;SDS011;23894;51.466;7.444;2023-08-31T08:44:50;6.55;;;2.28;;
38083;SDS011;23894;51.466;7.444;2023-08-31T08:46:52;5.32;;;2.20;;
38083;SDS011;23894;51.466;7.444;2023-08-31T08:48:54;4.97;;;2.08;;
38083;SDS011;23894;51.466;7.444;2023-08-31T08:50:56;5.47;;;2.42;;
38083;SDS011;23894;51.466;7.444;2023-08-31T08:52:57;6.22;;;2.35;;
38083;SDS011;23894;51.466;7.444;2023-08-31T08:55:00;6.30;;;2.28;;
38083;SDS011;23894;51.466;7.444;2023-08-31T08:57:03;6.80;;;2.33;;
38083;SDS011;23894;51.466;7.444;2023-08-31T08:59:05;5.47;;;2.30;;
38083;SDS011;23894;51.466;7.444;2023-08-31T09:01:07;5.78;;;2.08;;
38083;SDS011;23894;51.466;7.444;2023-08-31T09:03:10;7.43;;;2.33;;
38083;SDS011;23894;51.466;7.444;2023-08-31T09:05:10;5.38;;;2.38;;
38083;SDS011;23894;51.466;7.444;2023-08-31T09:07:11;5.53;;;2.20;;
38083;SDS011;23894;51.466;7.444;2023-08-31T09:09:13;5.35;;;2.20;;
38083;SDS011;23894;51.466;7.444;2023-08-31T09:11:21;6.50;;;2.13;;
38083;SDS011;23894;51.466;7.444;2023-08-31T09:13:23;7.05;;;2.38;;
38083;SDS011;23894;51.466;7.444;2023-08-31T09:15:26;8.23;;;2.10;;
38083;SDS011;23894;51.466;7.444;2023-08-31T09:17:37;6.53;;;2.45;;
38083;SDS011;23894;51.466;7.444;2023-08-31T09:19:39;5.83;;;2.57;;
38083;SDS011;23894;51.466;7.444;2023-08-31T09:21:42;6.78;;;2.35;;
38083;SDS011;23894;51.466;7.444;2023-08-31T09:23:46;7.40;;;2.78;;
38083;SDS011;23894;51.466;7.444;2023-08-31T09:25:51;9.02;;;2.65;;
38083;SDS011;23894;51.466;7.444;2023-08-31T09:27:55;5.03;;;2.45;;
38083;SDS011;23894;51.466;7.444;2023-08-31T09:29:57;5.95;;;2.10;;
38083;SDS011;23894;51.466;7.444;2023-08-31T09:31:58;7.30;;;2.53;;
38083;SDS011;23894;51.466;7.444;2023-08-31T09:33:59;5.13;;;2.33;;
38083;SDS011;23894;51.466;7.444;2023-08-31T09:36:03;6.95;;;2.50;;
38083;SDS011;23894;51.466;7.444;2023-08-31T09:38:07;6.03;;;2.30;;
38083;SDS011;23894;51.466;7.444;2023-08-31T09:40:10;6.37;;;2.33;;
38083;SDS011;23894;51.466;7.444;2023-08-31T09:42:16;6.80;;;2.47;;
38083;SDS011;23894;51.466;7.444;2023-08-31T09:44:18;8.95;;;2.40;;
38083;SDS011;23894;51.466;7.444;2023-08-31T09:46:19;5.72;;;2.33;;
38083;SDS011;23894;51.466;7.444;2023-08-31T09:48:20;5.35;;;2.22;;
38083;SDS011;23894;51.466;7.444;2023-08-31T09:50:24;6.28;;;2.13;;
38083;SDS011;23894;51.466;7.444;2023-08-31T09:52:30;5.50;;;1.95;;
38083;SDS011;23894;51.466;7.444;2023-08-31T09:54:32;6.70;;;2.33;;
38083;SDS011;23894;51.466;7.444;2023-08-31T09:56:40;6.13;;;1.90;;
38083;SDS011;23894;51.466;7.444;2023-08-31T09:58:42;5.93;;;2.22;;
38083;SDS011;23894;51.466;7.444;2023-08-31T10:00:43;5.00;;;2.05;;
38083;SDS011;23894;51.466;7.444;2023-08-31T10:02:44;5.10;;;2.10;;
38083;SDS011;23894;51.466;7.444;2023-08-31T10:04:47;6.00;;;1.83;;
38083;SDS011;23894;51.466;7.444;2023-08-31T10:06:52;5.05;;;1.75;;
38083;SDS011;23894;51.466;7.444;2023-08-31T10:08:55;5.00;;;1.85;;
38083;SDS011;23894;51.466;7.444;2023-08-31T10:10:58;4.80;;;1.77;;
38083;SDS011;23894;51.466;7.444;2023-08-31T10:13:00;5.27;;;2.10;;
38083;SDS011;23894;51.466;7.444;2023-08-31T10:15:01;5.55;;;2.10;;
38083;SDS011;23894;51.466;7.444;2023-08-31T10:17:04;5.53;;;1.85;;
38083;SDS011;23894;51.466;7.444;2023-08-31T10:19:06;5.32;;;1.90;;
38083;SDS011;23894;51.466;7.444;2023-08-31T10:21:07;5.23;;;1.90;;
38083;SDS011;23894;51.466;7.444;2023-08-31T10:23:09;5.50;;;1.80;;
38083;SDS011;23894;51.466;7.444;2023-08-31T10:25:12;4.82;;;1.70;;
38083;SDS011;23894;51.466;7.444;2023-08-31T10:27:19;5.25;;;1.80;;
38083;SDS011;23894;51.466;7.444;2023-08-31T10:29:26;6.22;;;1.90;;
38083;SDS011;23894;51.466;7.444;2023-08-31T10:31:31;8.43;;;2.00;;
38083;SDS011;23894;51.466;7.444;2023-08-31T10:33:34;6.75;;;2.00;;
38083;SDS011;23894;51.466;7.444;2023-08-31T10:35:54;5.03;;;1.80;;
38083;SDS011;23894;51.466;7.444;2023-08-31T10:38:14;5.00;;;1.80;;
38083;SDS011;23894;51.466;7.444;2023-08-31T10:40:16;7.00;;;1.90;;
38083;SDS011;23894;51.466;7.444;2023-08-31T10:42:19;5.75;;;1.80;;
38083;SDS011;23894;51.466;7.444;2023-08-31T10:44:25;6.13;;;1.67;;
38083;SDS011;23894;51.466;7.444;2023-08-31T10:46:33;6.40;;;1.92;;
38083;SDS011;23894;51.466;7.444;2023-08-31T10:48:48;5.47;;;1.70;;
38083;SDS011;23894;51.466;7.444;2023-08-31T10:50:49;5.57;;;1.77;;
38083;SDS011;23894;51.466;7.444;2023-08-31T10:52:50;5.93;;;1.90;;
38083;SDS011;23894;51.466;7.444;2023-08-31T10:54:55;5.15;;;1.70;;
38083;SDS011;23894;51.466;7.444;2023-08-31T10:57:05;5.40;;;1.80;;
38083;SDS011;23894;51.466;7.444;2023-08-31T10:59:06;4.75;;;1.80;;
38083;SDS011;23894;51.466;7.444;2023-08-31T11:01:08;4.35;;;1.83;;
38083;SDS011;23894;51.466;7.444;2023-08-31T11:03:12;6.22;;;1.65;;
38083;SDS011;23894;51.466;7.444;2023-08-31T11:05:13;6.38;;;2.20;;
38083;SDS011;23894;51.466;7.444;2023-08-31T11:07:19;5.47;;;1.75;;
38083;SDS011;23894;51.466;7.444;2023-08-31T11:09:22;5.25;;;1.52;;
38083;SDS011;23894;51.466;7.444;2023-08-31T11:11:23;4.60;;;1.55;;
38083;SDS011;23894;51.466;7.444;2023-08-31T11:13:24;5.93;;;1.70;;
38083;SDS011;23894;51.466;7.444;2023-08-31T11:15:27;6.03;;;1.90;;
38083;SDS011;23894;51.466;7.444;2023-08-31T11:17:30;5.37;;;1.63;;
38083;SDS011;23894;51.466;7.444;2023-08-31T11:19:35;3.65;;;1.42;;
38083;SDS011;23894;51.466;7.444;2023-08-31T11:21:37;5.30;;;1.75;;
38083;SDS011;23894;51.466;7.444;2023-08-31T11:23:39;7.82;;;1.85;;
38083;SDS011;23894;51.466;7.444;2023-08-31T11:25:41;5.93;;;2.00;;
38083;SDS011;23894;51.466;7.444;2023-08-31T11:27:42;5.53;;;1.75;;
38083;SDS011;23894;51.466;7.444;2023-08-31T11:29:53;6.47;;;1.77;;
38083;SDS011;23894;51.466;7.444;2023-08-31T11:31:55;5.00;;;2.00;;
38083;SDS011;23894;51.466;7.444;2023-08-31T11:33:57;5.68;;;1.92;;
38083;SDS011;23894;51.466;7.444;2023-08-31T11:35:58;4.88;;;1.73;;
38083;SDS011;23894;51.466;7.444;2023-08-31T11:37:59;5.68;;;1.70;;
38083;SDS011;23894;51.466;7.444;2023-08-31T11:40:00;7.45;;;1.90;;
38083;SDS011;23894;51.466;7.444;2023-08-31T11:42:04;6.18;;;1.73;;
38083;SDS011;23894;51.466;7.444;2023-08-31T11:44:12;6.65;;;2.00;;
38083;SDS011;23894;51.466;7.444;2023-08-31T11:46:13;4.55;;;1.88;;
38083;SDS011;23894;51.466;7.444;2023-08-31T11:48:15;4.97;;;2.05;;
38083;SDS011;23894;51.466;7.444;2023-08-31T11:50:16;7.00;;;2.13;;
38083;SDS011;23894;51.466;7.444;2023-08-31T11:52:19;5.65;;;1.90;;
38083;SDS011;23894;51.466;7.444;2023-08-31T11:54:21;7.45;;;2.08;;
38083;SDS011;23894;51.466;7.444;2023-08-31T11:56:25;5.72;;;2.20;;
38083;SDS011;23894;51.466;7.444;2023-08-31T11:58:27;9.82;;;2.25;;
38083;SDS011;23894;51.466;7.444;2023-08-31T12:00:30;5.25;;;2.15;;
38083;SDS011;23894;51.466;7.444;2023-08-31T12:02:35;6.73;;;2.93;;
38083;SDS011;23894;51.466;7.444;2023-08-31T12:04:44;6.25;;;1.90;;
38083;SDS011;23894;51.466;7.444;2023-08-31T12:06:48;6.18;;;2.10;;
38083;SDS011;23894;51.466;7.444;2023-08-31T12:08:50;5.35;;;1.77;;
38083;SDS011;23894;51.466;7.444;2023-08-31T12:10:51;7.47;;;2.50;;
38083;SDS011;23894;51.466;7.444;2023-08-31T12:13:11;6.65;;;2.15;;
38083;SDS011;23894;51.466;7.444;2023-08-31T12:15:16;7.00;;;2.42;;
38083;SDS011;23894;51.466;7.444;2023-08-31T12:17:18;8.27;;;2.47;;
38083;SDS011;23894;51.466;7.444;2023-08-31T12:19:19;7.37;;;2.20;;
38083;SDS011;23894;51.466;7.444;2023-08-31T12:21:20;6.28;;;2.00;;
38083;SDS011;23894;51.466;7.444;2023-08-31T12:23:21;5.75;;;1.95;;